createdAt,value
2023-05-08T00:01:02.390Z,0.43
2023-05-08T00:03:29.446Z,0.30
2023-05-08T00:05:56.398Z,0.30
2023-05-08T00:08:23.249Z,0.30
2023-05-08T00:10:50.071Z,0.30
2023-05-08T00:13:17.066Z,0.20
2023-05-08T00:15:44.035Z,0.30
2023-05-08T00:18:10.903Z,0.30
2023-05-08T00:20:37.975Z,0.40
2023-05-08T00:23:05.066Z,0.40
2023-05-08T00:25:32.062Z,0.30
2023-05-08T00:27:59.855Z,0.40
2023-05-08T00:30:27.241Z,0.30
2023-05-08T00:32:54.362Z,0.30
2023-05-08T00:35:22.025Z,0.35
2023-05-08T00:37:48.956Z,0.30
2023-05-08T00:40:16.178Z,0.20
2023-05-08T00:42:43.086Z,0.30
2023-05-08T00:45:10.456Z,0.40
2023-05-08T00:47:38.329Z,0.30
2023-05-08T00:50:05.711Z,0.30
2023-05-08T00:52:33.804Z,0.30
2023-05-08T00:55:04.707Z,0.30
2023-05-08T00:57:35.732Z,0.30
2023-05-08T01:00:04.715Z,0.37
2023-05-08T01:02:32.384Z,0.30
2023-05-08T01:04:59.939Z,0.40
2023-05-08T01:07:27.585Z,0.30
2023-05-08T01:09:54.634Z,0.30
2023-05-08T01:12:40.088Z,0.30
2023-05-08T01:15:16.927Z,0.30
2023-05-08T01:17:56.788Z,0.30
2023-05-08T01:20:23.752Z,0.30
2023-05-08T01:23:18.540Z,0.30
2023-05-08T01:25:54.564Z,0.30
2023-05-08T01:29:00.279Z,0.30
2023-05-08T01:31:47.479Z,0.38
2023-05-08T01:34:25.389Z,0.30
2023-05-08T01:37:00.764Z,0.32
2023-05-08T01:39:50.901Z,0.40
2023-05-08T01:42:43.189Z,0.40
2023-05-08T01:47:48.974Z,0.30
2023-05-08T01:50:22.180Z,0.30
2023-05-08T01:52:53.255Z,0.25
2023-05-08T01:55:34.565Z,0.30
2023-05-08T01:58:07.345Z,0.30
2023-05-08T02:00:34.306Z,0.30
2023-05-08T02:03:02.541Z,0.30
2023-05-08T02:05:30.075Z,0.30
2023-05-08T02:07:58.722Z,0.30
2023-05-08T02:10:26.397Z,0.30
2023-05-08T02:12:54.740Z,0.30
2023-05-08T02:15:23.049Z,0.30
2023-05-08T02:17:52.963Z,0.30
2023-05-08T02:20:21.177Z,0.40
2023-05-08T02:22:51.764Z,0.30
2023-05-08T02:25:19.694Z,0.30
2023-05-08T02:27:49.475Z,0.30
2023-05-08T02:30:18.027Z,0.40
2023-05-08T02:32:47.841Z,0.30
2023-05-08T02:35:17.309Z,0.40
2023-05-08T02:37:51.568Z,0.25
2023-05-08T02:40:20.466Z,0.20
2023-05-08T02:42:47.844Z,0.30
2023-05-08T02:45:15.090Z,0.40
2023-05-08T02:47:52.975Z,0.38
2023-05-08T02:50:27.030Z,0.30
2023-05-08T02:53:03.148Z,0.30
2023-05-08T02:55:42.827Z,0.30
2023-05-08T02:58:18.711Z,0.30
2023-05-08T03:00:54.030Z,0.30
2023-05-08T03:03:30.331Z,0.30
2023-05-08T03:06:02.064Z,0.40
2023-05-08T03:08:32.594Z,0.30
2023-05-08T03:11:04.045Z,0.30
2023-05-08T03:13:34.347Z,0.30
2023-05-08T03:16:03.861Z,0.30
2023-05-08T03:18:39.460Z,0.30
2023-05-08T03:21:08.213Z,0.30
2023-05-08T03:23:37.112Z,0.20
2023-05-08T03:26:05.846Z,0.20
2023-05-08T03:28:34.884Z,0.30
2023-05-08T03:31:02.839Z,0.30
2023-05-08T03:33:30.699Z,0.30
2023-05-08T03:36:00.152Z,0.30
2023-05-08T03:38:27.339Z,0.25
2023-05-08T03:40:54.316Z,0.32
2023-05-08T03:43:22.242Z,0.30
2023-05-08T03:45:50.119Z,0.30
2023-05-08T03:48:19.831Z,0.30
2023-05-08T03:50:47.391Z,0.30
2023-05-08T03:53:14.596Z,0.22
2023-05-08T03:55:41.780Z,0.30
2023-05-08T03:58:23.662Z,0.30
2023-05-08T04:01:08.600Z,0.30
2023-05-08T04:03:53.668Z,0.30
2023-05-08T04:06:35.622Z,0.30
2023-05-08T04:09:28.716Z,0.25
2023-05-08T04:12:16.131Z,0.30
2023-05-08T04:14:54.207Z,0.25
2023-05-08T04:17:34.783Z,0.30
2023-05-08T04:20:04.537Z,0.35
2023-05-08T04:22:34.666Z,0.30
2023-05-08T04:25:04.354Z,0.30
2023-05-08T04:27:31.675Z,0.30
2023-05-08T04:29:59.098Z,0.30
2023-05-08T04:32:27.459Z,0.25
2023-05-08T04:34:55.419Z,0.30
2023-05-08T04:37:27.673Z,0.30
2023-05-08T04:39:56.637Z,0.30
2023-05-08T04:42:25.922Z,0.40
2023-05-08T04:44:55.190Z,0.30
2023-05-08T04:47:24.038Z,0.38
2023-05-08T04:49:51.360Z,0.20
2023-05-08T04:52:18.257Z,0.30
2023-05-08T04:54:45.131Z,0.30
2023-05-08T04:57:12.055Z,0.30
2023-05-08T04:59:39.021Z,0.25
2023-05-08T05:02:08.349Z,0.30
2023-05-08T05:04:36.848Z,0.38
2023-05-08T05:07:05.382Z,0.35
2023-05-08T05:09:36.948Z,0.28
2023-05-08T05:12:05.485Z,0.43
2023-05-08T05:14:33.590Z,0.30
2023-05-08T05:17:00.554Z,0.40
2023-05-08T05:19:27.396Z,0.30
2023-05-08T05:21:54.486Z,0.30
2023-05-08T05:24:21.508Z,0.30
2023-05-08T05:26:48.340Z,0.30
2023-05-08T05:29:15.980Z,0.40
2023-05-08T05:31:43.177Z,0.60
2023-05-08T05:34:10.258Z,0.40
2023-05-08T05:36:37.586Z,0.40
2023-05-08T05:39:05.047Z,0.30
2023-05-08T05:41:34.190Z,0.45
2023-05-08T05:44:01.047Z,0.40
2023-05-08T05:46:32.519Z,0.40
2023-05-08T05:49:01.684Z,0.40
2023-05-08T05:51:29.296Z,0.60
2023-05-08T05:53:57.164Z,0.60
2023-05-08T05:56:25.168Z,0.60
2023-05-08T05:58:52.631Z,1.60
2023-05-08T06:01:19.638Z,2.60
2023-05-08T06:03:47.575Z,3.25
2023-05-08T06:06:14.637Z,3.25
2023-05-08T06:08:41.595Z,3.40
2023-05-08T06:11:08.739Z,3.83
2023-05-08T06:13:35.601Z,3.95
2023-05-08T06:16:02.458Z,3.78
2023-05-08T06:18:29.993Z,3.55
2023-05-08T06:21:00.457Z,5.00
2023-05-08T06:23:27.384Z,4.40
2023-05-08T06:25:54.418Z,6.32
2023-05-08T06:28:22.579Z,5.95
2023-05-08T06:30:49.606Z,6.38
2023-05-08T06:33:16.505Z,6.07
2023-05-08T06:35:47.578Z,7.47
2023-05-08T06:38:15.149Z,7.07
2023-05-08T06:40:46.340Z,7.38
2023-05-08T06:43:13.422Z,8.18
2023-05-08T06:45:40.772Z,8.05
2023-05-08T06:48:07.917Z,7.47
2023-05-08T06:50:37.651Z,9.13
2023-05-08T06:53:04.461Z,9.02
2023-05-08T06:55:31.267Z,9.65
2023-05-08T06:57:58.229Z,9.60
2023-05-08T07:00:25.256Z,8.43
2023-05-08T07:02:52.396Z,8.38
2023-05-08T07:05:20.120Z,7.55
2023-05-08T07:07:47.277Z,8.90
2023-05-08T07:10:14.165Z,8.60
2023-05-08T07:12:41.319Z,8.60
2023-05-08T07:15:21.652Z,9.40
2023-05-08T07:17:52.788Z,9.25
2023-05-08T07:20:19.933Z,9.45
2023-05-08T07:22:46.718Z,9.68
2023-05-08T07:25:13.861Z,9.73
2023-05-08T07:27:40.924Z,9.43
2023-05-08T07:30:08.604Z,8.85
2023-05-08T07:32:35.951Z,11.40
2023-05-08T07:35:03.783Z,9.93
2023-05-08T07:37:30.708Z,9.70
2023-05-08T07:39:57.746Z,9.45
2023-05-08T07:42:24.643Z,10.35
2023-05-08T07:44:55.025Z,9.90
2023-05-08T07:47:22.793Z,8.48
2023-05-08T07:49:49.774Z,9.43
2023-05-08T07:52:16.790Z,8.95
2023-05-08T07:54:43.986Z,8.43
2023-05-08T07:57:11.575Z,9.65
2023-05-08T07:59:38.599Z,11.13
2023-05-08T08:02:05.575Z,10.70
2023-05-08T08:04:32.563Z,9.02
2023-05-08T08:06:59.537Z,10.45
2023-05-08T08:09:26.357Z,9.05
2023-05-08T08:11:53.314Z,10.80
2023-05-08T08:14:20.179Z,10.80
2023-05-08T08:16:47.139Z,10.05
2023-05-08T08:19:13.985Z,11.05
2023-05-08T08:21:44.290Z,11.95
2023-05-08T08:24:11.127Z,10.00
2023-05-08T08:26:37.962Z,9.50
2023-05-08T08:29:04.893Z,8.38
2023-05-08T08:31:31.900Z,8.95
2023-05-08T08:33:58.713Z,9.13
2023-05-08T08:36:25.540Z,8.55
2023-05-08T08:38:53.038Z,9.13
2023-05-08T08:41:19.875Z,8.82
2023-05-08T08:43:46.708Z,8.35
2023-05-08T08:46:18.156Z,8.70
2023-05-08T08:48:47.099Z,9.20
2023-05-08T08:51:36.781Z,8.23
2023-05-08T08:54:07.407Z,8.10
2023-05-08T08:56:36.095Z,8.77
2023-05-08T08:59:04.602Z,8.95
2023-05-08T09:01:36.132Z,8.10
2023-05-08T09:04:03.286Z,7.70
2023-05-08T09:06:30.471Z,7.30
2023-05-08T09:08:58.573Z,6.90
2023-05-08T09:11:25.929Z,6.88
2023-05-08T09:13:52.899Z,6.68
2023-05-08T09:16:19.803Z,6.43
2023-05-08T09:18:46.726Z,6.65
2023-05-08T09:21:13.787Z,7.18
2023-05-08T09:23:57.319Z,7.40
2023-05-08T09:26:32.651Z,7.45
2023-05-08T09:29:13.281Z,6.90
2023-05-08T09:31:45.120Z,6.68
2023-05-08T09:34:33.121Z,6.53
2023-05-08T09:37:06.010Z,6.25
2023-05-08T09:39:32.964Z,6.35
2023-05-08T09:42:01.349Z,6.68
2023-05-08T09:44:28.590Z,6.63
2023-05-08T09:47:21.948Z,7.00
2023-05-08T09:50:03.591Z,6.70
2023-05-08T09:52:32.181Z,5.95
2023-05-08T09:55:09.314Z,6.53
2023-05-08T09:57:49.985Z,6.55
2023-05-08T10:00:17.216Z,6.40
2023-05-08T10:02:56.352Z,6.40
2023-05-08T10:05:25.764Z,6.43
2023-05-08T10:07:52.725Z,6.22
2023-05-08T10:10:27.407Z,6.00
2023-05-08T10:12:56.031Z,6.00
2023-05-08T10:15:33.841Z,5.53
2023-05-08T10:18:05.195Z,5.97
2023-05-08T10:20:34.103Z,6.10
2023-05-08T10:23:02.631Z,5.80
2023-05-08T10:25:33.713Z,5.80
2023-05-08T10:28:11.042Z,6.13
2023-05-08T10:30:41.690Z,5.50
2023-05-08T10:33:10.936Z,5.63
2023-05-08T10:35:37.978Z,6.13
2023-05-08T10:38:05.228Z,6.25
2023-05-08T10:40:32.360Z,6.35
2023-05-08T10:43:00.361Z,6.05
2023-05-08T10:45:27.974Z,6.00
2023-05-08T10:48:26.771Z,5.82
2023-05-08T10:51:32.751Z,6.03
2023-05-08T10:54:08.604Z,6.20
2023-05-08T10:56:38.481Z,6.07
2023-05-08T10:59:06.341Z,6.10
2023-05-08T11:01:33.327Z,5.60
2023-05-08T11:04:00.604Z,6.22
2023-05-08T11:06:48.943Z,6.30
2023-05-08T11:09:30.915Z,7.00
2023-05-08T11:12:18.567Z,7.30
2023-05-08T11:15:11.667Z,7.72
2023-05-08T11:17:40.159Z,7.80
2023-05-08T11:20:07.545Z,7.72
2023-05-08T11:22:35.732Z,9.40
2023-05-08T11:25:04.067Z,9.80
2023-05-08T11:27:39.978Z,10.35
2023-05-08T11:30:38.940Z,10.52
2023-05-08T11:33:06.320Z,9.40
2023-05-08T11:35:57.680Z,9.68
2023-05-08T11:38:30.410Z,9.30
2023-05-08T11:41:00.339Z,10.80
2023-05-08T11:43:33.522Z,12.43
2023-05-08T11:46:01.911Z,13.00
2023-05-08T11:48:28.936Z,15.82
2023-05-08T11:50:55.896Z,14.85
2023-05-08T11:53:23.428Z,15.85
2023-05-08T11:55:52.805Z,14.15
2023-05-08T11:58:19.669Z,15.30
2023-05-08T12:00:47.558Z,15.32
2023-05-08T12:03:15.399Z,17.50
2023-05-08T12:05:42.615Z,18.60
2023-05-08T12:08:11.655Z,17.42
2023-05-08T12:10:51.980Z,16.17
2023-05-08T12:13:29.608Z,16.77
2023-05-08T12:15:59.044Z,17.00
2023-05-08T12:18:28.338Z,16.88
2023-05-08T12:20:58.614Z,17.13
2023-05-08T12:23:26.644Z,16.55
2023-05-08T12:25:55.326Z,17.85
2023-05-08T12:28:22.734Z,18.42
2023-05-08T12:30:51.241Z,17.50
2023-05-08T12:33:20.055Z,19.52
2023-05-08T12:35:47.109Z,19.52
2023-05-08T12:38:14.163Z,19.50
2023-05-08T12:40:42.750Z,19.10
2023-05-08T12:43:10.476Z,19.73
2023-05-08T12:45:39.923Z,18.20
2023-05-08T12:48:09.724Z,18.58
2023-05-08T12:50:41.291Z,18.40
2023-05-08T12:53:10.261Z,18.25
2023-05-08T12:55:39.370Z,18.30
2023-05-08T12:58:15.031Z,18.67
2023-05-08T13:00:44.893Z,17.48
2023-05-08T13:03:13.518Z,17.63
2023-05-08T13:05:44.800Z,17.25
2023-05-08T13:08:12.039Z,15.20
2023-05-08T13:10:55.431Z,14.95
2023-05-08T13:13:25.765Z,13.27
2023-05-08T13:15:54.574Z,14.13
2023-05-08T13:18:24.838Z,13.70
2023-05-08T13:20:51.679Z,13.70
2023-05-08T13:23:18.549Z,12.55
2023-05-08T13:25:45.425Z,11.32
2023-05-08T13:28:12.255Z,12.63
2023-05-08T13:30:39.272Z,11.63
2023-05-08T13:33:06.492Z,10.25
2023-05-08T13:35:34.165Z,10.52
2023-05-08T13:38:01.158Z,10.95
2023-05-08T13:40:28.438Z,11.73
2023-05-08T13:42:55.369Z,11.55
2023-05-08T13:45:22.426Z,11.20
2023-05-08T13:47:50.511Z,11.43
2023-05-08T13:50:19.822Z,11.15
2023-05-08T13:52:46.703Z,11.02
2023-05-08T13:55:14.282Z,11.23
2023-05-08T13:57:41.933Z,11.68
2023-05-08T14:00:09.417Z,10.30
2023-05-08T14:02:37.390Z,10.93
2023-05-08T14:05:05.435Z,10.80
2023-05-08T14:07:32.364Z,8.90
2023-05-08T14:09:59.366Z,9.07
2023-05-08T14:12:26.234Z,9.00
2023-05-08T14:14:53.063Z,9.40
2023-05-08T14:17:19.982Z,9.57
2023-05-08T14:19:46.935Z,10.65
2023-05-08T14:22:13.787Z,9.57
2023-05-08T14:24:40.699Z,10.38
2023-05-08T14:27:07.561Z,10.05
2023-05-08T14:29:34.472Z,10.43
2023-05-08T14:32:01.679Z,10.75
2023-05-08T14:34:28.871Z,9.85
2023-05-08T14:36:55.775Z,9.98
2023-05-08T14:39:22.626Z,9.73
2023-05-08T14:42:05.698Z,9.60
2023-05-08T14:44:36.500Z,10.02
2023-05-08T14:47:03.436Z,9.77
2023-05-08T14:49:37.497Z,10.20
2023-05-08T14:52:06.161Z,9.65
2023-05-08T14:54:33.738Z,9.50
2023-05-08T14:57:00.796Z,10.25
2023-05-08T14:59:27.690Z,9.98
2023-05-08T15:01:54.654Z,9.70
2023-05-08T15:04:21.710Z,9.57
2023-05-08T15:06:48.619Z,9.15
2023-05-08T15:09:16.541Z,9.75
2023-05-08T15:11:43.934Z,9.40
2023-05-08T15:14:10.924Z,9.70
2023-05-08T15:16:38.005Z,8.90
2023-05-08T15:19:05.052Z,8.68
2023-05-08T15:21:31.946Z,7.82
2023-05-08T15:23:58.846Z,9.20
2023-05-08T15:26:25.906Z,9.13
2023-05-08T15:28:52.771Z,8.75
2023-05-08T15:31:19.714Z,8.77
2023-05-08T15:33:47.802Z,8.95
2023-05-08T15:36:14.813Z,9.25
2023-05-08T15:38:42.224Z,9.77
2023-05-08T15:41:15.492Z,9.55
2023-05-08T15:43:45.146Z,10.57
2023-05-08T15:46:12.186Z,10.93
2023-05-08T15:48:39.194Z,11.30
2023-05-08T15:51:06.287Z,11.40
2023-05-08T15:53:34.042Z,11.82
2023-05-08T15:56:00.945Z,12.40
2023-05-08T15:58:27.807Z,12.68
2023-05-08T16:00:54.885Z,12.73
2023-05-08T16:03:22.104Z,12.70
2023-05-08T16:05:49.310Z,13.82
2023-05-08T16:08:16.318Z,11.45
2023-05-08T16:10:43.287Z,13.95
2023-05-08T16:13:10.230Z,12.18
2023-05-08T16:15:37.220Z,12.30
2023-05-08T16:18:04.410Z,12.10
2023-05-08T16:20:33.341Z,11.13
2023-05-08T16:23:00.570Z,11.88
2023-05-08T16:25:27.516Z,12.65
2023-05-08T16:27:54.397Z,11.95
2023-05-08T16:30:21.297Z,12.52
2023-05-08T16:32:48.399Z,13.30
2023-05-08T16:35:15.772Z,12.65
2023-05-08T16:37:43.045Z,12.80
2023-05-08T16:40:11.058Z,14.20
2023-05-08T16:42:38.252Z,12.27
2023-05-08T16:45:05.702Z,12.82
2023-05-08T16:47:33.260Z,14.98
2023-05-08T16:50:00.571Z,14.15
2023-05-08T16:52:27.571Z,14.13
2023-05-08T16:54:54.364Z,13.90
2023-05-08T16:57:21.219Z,14.05
2023-05-08T16:59:48.021Z,14.50
2023-05-08T17:02:18.709Z,14.43
2023-05-08T17:04:49.502Z,14.45
2023-05-08T17:07:17.416Z,15.00
2023-05-08T17:09:45.708Z,15.15
2023-05-08T17:12:12.569Z,16.50
2023-05-08T17:14:40.496Z,15.88
2023-05-08T17:17:07.887Z,21.60
2023-05-08T17:19:35.247Z,20.08
2023-05-08T17:22:02.582Z,17.25
2023-05-08T17:24:30.535Z,19.27
2023-05-08T17:26:57.491Z,20.23
2023-05-08T17:29:24.827Z,21.08
2023-05-08T17:31:51.773Z,19.40
2023-05-08T17:34:18.643Z,21.65
2023-05-08T17:36:45.582Z,22.20
2023-05-08T17:39:12.786Z,23.30
2023-05-08T17:41:39.687Z,26.65
2023-05-08T17:44:07.078Z,28.92
2023-05-08T17:46:34.041Z,28.63
2023-05-08T17:49:00.984Z,26.33
2023-05-08T17:51:27.906Z,27.05
2023-05-08T17:53:57.780Z,27.77
2023-05-08T17:56:24.680Z,28.05
2023-05-08T17:58:52.537Z,27.30
2023-05-08T18:01:20.197Z,29.52
2023-05-08T18:03:49.969Z,33.15
2023-05-08T18:06:20.121Z,30.08
2023-05-08T18:08:47.852Z,29.70
2023-05-08T18:11:25.340Z,29.63
2023-05-08T18:13:53.617Z,30.45
2023-05-08T18:16:21.804Z,29.50
2023-05-08T18:18:49.649Z,29.50
2023-05-08T18:21:16.870Z,29.77
2023-05-08T18:23:43.761Z,29.38
2023-05-08T18:26:15.072Z,29.70
2023-05-08T18:28:42.233Z,29.88
2023-05-08T18:31:09.273Z,28.58
2023-05-08T18:33:37.253Z,32.20
2023-05-08T18:36:06.886Z,34.00
2023-05-08T18:38:34.806Z,36.97
2023-05-08T18:41:03.291Z,29.92
2023-05-08T18:43:30.170Z,33.58
2023-05-08T18:45:58.036Z,32.40
2023-05-08T18:48:26.430Z,28.17
2023-05-08T18:50:53.337Z,27.02
2023-05-08T18:53:20.274Z,23.65
2023-05-08T18:55:47.074Z,24.13
2023-05-08T18:58:13.927Z,23.80
2023-05-08T19:00:40.947Z,22.73
2023-05-08T19:03:08.017Z,21.90
2023-05-08T19:05:35.182Z,21.70
2023-05-08T19:08:02.001Z,20.70
2023-05-08T19:10:29.032Z,21.63
2023-05-08T19:12:56.088Z,22.33
2023-05-08T19:15:22.929Z,22.08
2023-05-08T19:17:49.804Z,21.00
2023-05-08T19:20:16.872Z,21.80
2023-05-08T19:22:43.828Z,18.63
2023-05-08T19:25:12.562Z,19.48
2023-05-08T19:27:39.662Z,17.70
2023-05-08T19:30:07.159Z,18.58
2023-05-08T19:32:34.014Z,18.90
2023-05-08T19:35:02.523Z,18.60
2023-05-08T19:37:29.464Z,18.77
2023-05-08T19:39:56.589Z,18.85
2023-05-08T19:42:23.581Z,23.02
2023-05-08T19:44:50.545Z,24.75
2023-05-08T19:47:17.593Z,21.65
2023-05-08T19:49:44.421Z,24.50
2023-05-08T19:52:14.283Z,25.52
2023-05-08T19:54:41.138Z,21.20
2023-05-08T19:57:07.971Z,24.55
2023-05-08T19:59:34.788Z,23.05
2023-05-08T20:02:01.705Z,23.65
2023-05-08T20:04:29.014Z,22.65
2023-05-08T20:06:55.878Z,23.55
2023-05-08T20:09:22.690Z,21.75
2023-05-08T20:11:49.779Z,19.25
2023-05-08T20:14:16.621Z,23.95
2023-05-08T20:16:43.925Z,22.40
2023-05-08T20:19:11.050Z,21.10
2023-05-08T20:21:37.984Z,20.13
2023-05-08T20:24:05.285Z,20.23
2023-05-08T20:26:32.810Z,17.65
2023-05-08T20:28:59.877Z,19.52
2023-05-08T20:31:27.830Z,15.40
2023-05-08T20:33:54.753Z,19.27
2023-05-08T20:36:21.652Z,20.38
2023-05-08T20:38:48.742Z,19.35
2023-05-08T20:41:15.793Z,17.33
2023-05-08T20:43:42.702Z,19.35
2023-05-08T20:46:10.197Z,19.67
2023-05-08T20:48:38.417Z,16.08
2023-05-08T20:51:05.476Z,14.05
2023-05-08T20:53:33.508Z,14.57
2023-05-08T20:56:01.959Z,15.18
2023-05-08T20:58:28.984Z,13.13
2023-05-08T21:00:55.902Z,13.10
2023-05-08T21:03:23.014Z,9.13
2023-05-08T21:05:49.931Z,9.02
2023-05-08T21:08:16.876Z,8.60
2023-05-08T21:10:43.727Z,7.95
2023-05-08T21:13:10.553Z,7.60
2023-05-08T21:15:37.531Z,7.95
2023-05-08T21:18:04.656Z,7.15
2023-05-08T21:20:33.868Z,6.90
2023-05-08T21:23:00.701Z,8.55
2023-05-08T21:25:27.550Z,7.20
2023-05-08T21:27:55.479Z,6.57
2023-05-08T21:30:22.480Z,6.00
2023-05-08T21:32:49.395Z,6.82
2023-05-08T21:35:16.512Z,7.63
2023-05-08T21:37:43.551Z,6.22
2023-05-08T21:40:10.597Z,6.85
2023-05-08T21:42:39.789Z,7.28
2023-05-08T21:45:07.170Z,6.40
2023-05-08T21:47:34.025Z,6.47
2023-05-08T21:50:00.867Z,6.20
2023-05-08T21:52:27.767Z,6.00
2023-05-08T21:54:54.572Z,6.85
2023-05-08T21:57:21.474Z,6.75
2023-05-08T21:59:51.216Z,6.40
2023-05-08T22:02:19.138Z,6.10
2023-05-08T22:04:46.069Z,5.85
2023-05-08T22:07:12.897Z,5.90
2023-05-08T22:09:39.733Z,5.82
2023-05-08T22:12:07.174Z,5.90
2023-05-08T22:14:34.057Z,6.05
2023-05-08T22:17:00.981Z,5.18
2023-05-08T22:19:27.856Z,5.80
2023-05-08T22:21:54.716Z,5.88
2023-05-08T22:24:26.160Z,5.88
2023-05-08T22:26:53.005Z,5.53
2023-05-08T22:29:19.897Z,5.55
2023-05-08T22:31:47.793Z,5.35
2023-05-08T22:34:14.990Z,5.00
2023-05-08T22:36:41.981Z,5.43
2023-05-08T22:39:12.253Z,5.50
2023-05-08T22:41:39.321Z,5.38
2023-05-08T22:44:06.675Z,5.50
2023-05-08T22:46:34.679Z,5.32
2023-05-08T22:49:01.796Z,5.28
2023-05-08T22:51:30.212Z,5.55
2023-05-08T22:53:57.081Z,5.55
2023-05-08T22:56:24.088Z,4.93
2023-05-08T22:58:51.092Z,5.03
2023-05-08T23:01:18.036Z,5.20
2023-05-08T23:03:44.941Z,5.00
2023-05-08T23:06:11.785Z,5.28
2023-05-08T23:08:38.695Z,5.28
2023-05-08T23:11:05.549Z,5.40
2023-05-08T23:13:32.727Z,5.10
2023-05-08T23:15:59.634Z,5.00
2023-05-08T23:18:26.551Z,5.47
2023-05-08T23:20:53.355Z,4.65
2023-05-08T23:23:20.224Z,5.32
2023-05-08T23:25:47.070Z,5.22
2023-05-08T23:28:13.961Z,5.18
2023-05-08T23:30:40.840Z,5.00
2023-05-08T23:33:08.595Z,4.90
2023-05-08T23:35:35.603Z,5.00
2023-05-08T23:38:02.412Z,4.70
2023-05-08T23:40:29.285Z,5.22
2023-05-08T23:42:56.162Z,4.80
2023-05-08T23:45:23.021Z,4.68
2023-05-08T23:47:49.903Z,4.90
2023-05-08T23:50:16.921Z,5.07
2023-05-08T23:52:43.901Z,4.85
2023-05-08T23:55:11.082Z,4.47
2023-05-08T23:57:38.045Z,4.40
